Aviation Digital Data Service (ADDS)

Output produced by METARs form (2116 UTC 22 July 2014)
found at http://www.aviationweather.gov/adds/metars/
 
KPHL 222054Z 2221/2324 22010KT P6SM SCT040 
     FM230000 21006KT P6SM SCT250 
     TEMPO 2309/2312 5SM BR 
     FM231400 23010KT P6SM SCT045 
     PROB30 2321/2324 TSRA OVC025CB